Time;durP1;ratioP1;P1;durP2;ratioP2;P2;SDS_P1;SDS_P2;PMS_P1;PMS_P2;Temp;Humidity;BMP_temperature;BMP_pressure;BME280_temperature;BME280_humidity;BME280_pressure;Samples;Min_cycle;Max_cycle;Signal;HPM_P1;HPM_P2
2022/04/16 00:01:15;;;;;;;40.78;23.02;;;;;;;;;;5097524;28;20019;-68
2022/04/16 00:03:41;;;;;;;32.88;19.70;;;;;;;;;;5093303;28;20047;-70
2022/04/16 00:06:06;;;;;;;31.25;18.52;;;;;;;;;;5098524;28;20058;-66
2022/04/16 00:08:32;;;;;;;16.08;10.93;;;;;;;;;;5089595;28;20043;-67
2022/04/16 00:10:57;;;;;;;20.83;11.38;;;;;;;;;;5097704;28;20443;-68
2022/04/16 00:13:23;;;;;;;18.33;9.85;;;;;;;;;;5102298;28;20023;-65
2022/04/16 00:15:55;;;;;;;17.10;11.45;;;;;;;;;;5098781;28;20524;-68
2022/04/16 00:18:21;;;;;;;23.95;14.23;;;;;;;;;;5095853;28;20019;-72
2022/04/16 00:20:51;;;;;;;27.73;15.95;;;;;;;;;;5101417;28;20354;-67
2022/04/16 00:23:19;;;;;;;24.75;14.38;;;;;;;;;;5100362;28;20042;-70
2022/04/16 00:25:44;;;;;;;23.60;13.55;;;;;;;;;;5101373;28;20031;-67
2022/04/16 00:28:10;;;;;;;21.73;11.98;;;;;;;;;;5091765;28;20020;-68
2022/04/16 00:30:39;;;;;;;37.75;21.35;;;;;;;;;;5102513;28;20037;-67
2022/04/16 00:33:05;;;;;;;;;;;;;;;;;;5092087;28;20045;-66
2022/04/16 00:35:30;;;;;;;36.67;21.63;;;;;;;;;;5101176;28;20386;-73
2022/04/16 00:37:56;;;;;;;38.05;21.88;;;;;;;;;;5102029;28;20495;-68
2022/04/16 00:40:21;;;;;;;30.58;17.38;;;;;;;;;;5101499;28;20027;-71
2022/04/16 00:42:46;;;;;;;26.08;15.73;;;;;;;;;;5098003;28;20046;-70
2022/04/16 00:45:13;;;;;;;28.10;16.95;;;;;;;;;;5093971;28;20043;-68
2022/04/16 00:47:38;;;;;;;31.42;17.60;;;;;;;;;;5100496;28;20421;-69
2022/04/16 00:50:04;;;;;;;29.13;17.35;;;;;;;;;;5091636;28;20124;-70
2022/04/16 00:52:30;;;;;;;27.15;15.68;;;;;;;;;;5101736;28;20409;-69
2022/04/16 00:54:55;;;;;;;26.38;14.45;;;;;;;;;;5101657;28;20026;-66
2022/04/16 00:57:23;;;;;;;19.65;12.02;;;;;;;;;;5083403;28;20401;-67
2022/04/16 00:59:48;;;;;;;20.00;10.50;;;;;;;;;;5098831;28;20094;-73
2022/04/16 01:02:14;;;;;;;14.13;8.90;;;;;;;;;;5088230;28;20465;-66
2022/04/16 01:04:39;;;;;;;16.45;9.10;;;;;;;;;;5095321;28;20762;-68
2022/04/16 01:07:07;;;;;;;14.32;10.43;;;;;;;;;;5098459;28;20330;-72
2022/04/16 01:09:33;;;;;;;31.25;15.73;;;;;;;;;;5091103;28;20042;-66
2022/04/16 01:11:59;;;;;;;22.50;14.80;;;;;;;;;;5093292;28;20342;-70
2022/04/16 01:14:25;;;;;;;23.75;15.43;;;;;;;;;;5077582;28;20028;-67
2022/04/16 01:16:52;;;;;;;26.90;16.23;;;;;;;;;;5099537;28;20422;-71
2022/04/16 01:19:19;;;;;;;31.00;17.73;;;;;;;;;;5091190;28;20076;-69
2022/04/16 01:21:46;;;;;;;24.88;15.43;;;;;;;;;;5101263;28;20453;-67
2022/04/16 01:24:11;;;;;;;32.10;16.05;;;;;;;;;;5100994;28;20015;-68
2022/04/16 01:26:38;;;;;;;29.13;14.57;;;;;;;;;;5100887;28;20676;-69
2022/04/16 01:29:03;;;;;;;30.38;14.60;;;;;;;;;;5099900;28;20028;-67
2022/04/16 01:31:30;;;;;;;24.08;13.18;;;;;;;;;;5096754;28;20027;-67
2022/04/16 01:33:57;;;;;;;15.80;9.85;;;;;;;;;;5090628;28;20043;-75
2022/04/16 01:36:24;;;;;;;16.60;10.60;;;;;;;;;;5068988;28;20342;-71
2022/04/16 01:38:49;;;;;;;28.95;15.23;;;;;;;;;;5100405;28;20024;-68
2022/04/16 01:41:14;;;;;;;31.50;16.23;;;;;;;;;;5099033;28;20033;-67
2022/04/16 01:43:40;;;;;;;30.65;17.05;;;;;;;;;;5100047;28;20033;-67
2022/04/16 01:46:06;;;;;;;28.42;16.95;;;;;;;;;;5100690;28;20149;-72
2022/04/16 01:48:31;;;;;;;27.70;17.17;;;;;;;;;;5100407;28;20430;-71
2022/04/16 01:50:58;;;;;;;20.13;10.82;;;;;;;;;;5089768;28;20023;-67
2022/04/16 01:53:23;;;;;;;15.82;8.27;;;;;;;;;;5073269;28;20020;-70
2022/04/16 01:55:48;;;;;;;16.35;9.52;;;;;;;;;;5096203;28;20030;-67
2022/04/16 01:58:14;;;;;;;13.27;6.65;;;;;;;;;;5100582;28;20027;-67
2022/04/16 02:00:39;;;;;;;16.40;6.50;;;;;;;;;;5099640;28;20051;-72
2022/04/16 02:03:08;;;;;;;12.35;6.32;;;;;;;;;;5091136;28;20138;-66
2022/04/16 02:05:34;;;;;;;10.07;5.40;;;;;;;;;;5098485;28;20430;-67
2022/04/16 02:07:59;;;;;;;7.60;5.28;;;;;;;;;;5099979;28;20028;-68
2022/04/16 02:10:24;;;;;;;8.57;5.53;;;;;;;;;;5100131;28;20039;-66
2022/04/16 02:12:50;;;;;;;9.27;5.95;;;;;;;;;;5081458;28;20096;-69
2022/04/16 02:15:15;;;;;;;8.73;5.18;;;;;;;;;;5088992;28;20111;-67
2022/04/16 02:17:41;;;;;;;7.38;5.05;;;;;;;;;;5097108;28;20043;-68
2022/04/16 02:20:07;;;;;;;9.98;5.70;;;;;;;;;;5089674;28;20365;-74
2022/04/16 02:22:39;;;;;;;9.32;6.00;;;;;;;;;;5098929;28;20123;-67
2022/04/16 02:25:05;;;;;;;6.72;4.70;;;;;;;;;;5099551;28;20046;-70
2022/04/16 02:27:31;;;;;;;8.32;4.40;;;;;;;;;;5098754;28;20027;-67
2022/04/16 02:29:57;;;;;;;6.93;4.40;;;;;;;;;;5087334;28;20069;-68
2022/04/16 02:32:23;;;;;;;12.63;5.50;;;;;;;;;;5087549;28;20120;-72
2022/04/16 02:34:51;;;;;;;10.85;6.90;;;;;;;;;;5086932;28;20031;-67
2022/04/16 02:37:17;;;;;;;11.95;6.72;;;;;;;;;;5096311;28;20091;-67
2022/04/16 02:39:42;;;;;;;10.00;6.03;;;;;;;;;;5092191;28;20111;-71
2022/04/16 02:42:08;;;;;;;10.27;5.70;;;;;;;;;;5095477;28;20039;-69
2022/04/16 02:47:17;;;;;;;12.63;6.82;;;;;;;;;;5098937;28;20042;-69
2022/04/16 02:49:43;;;;;;;9.63;6.47;;;;;;;;;;5097528;28;20053;-68
2022/04/16 02:52:09;;;;;;;7.15;4.88;;;;;;;;;;5089826;28;20158;-67
2022/04/16 02:54:35;;;;;;;10.68;6.00;;;;;;;;;;5098188;28;20107;-68
2022/04/16 02:57:00;;;;;;;10.48;5.90;;;;;;;;;;5086146;28;20028;-68
2022/04/16 02:59:27;;;;;;;9.45;5.75;;;;;;;;;;5096504;28;20107;-71
2022/04/16 03:01:53;;;;;;;9.57;5.18;;;;;;;;;;5099870;28;20031;-67
2022/04/16 03:04:18;;;;;;;9.82;5.53;;;;;;;;;;5088219;28;20028;-67
2022/04/16 03:06:44;;;;;;;9.02;5.00;;;;;;;;;;5091152;28;20427;-67
2022/04/16 03:09:10;;;;;;;11.45;6.38;;;;;;;;;;5093502;28;20023;-69
2022/04/16 03:11:35;;;;;;;9.32;5.03;;;;;;;;;;5098598;28;20024;-70
2022/04/16 03:17:31;;;;;;;8.18;5.65;;;;;;;;;;5098358;28;20533;-67
2022/04/16 03:19:31;;;;;;;9.18;5.43;;;;;;;;;;5088781;28;20038;-68
2022/04/16 03:21:57;;;;;;;6.80;5.22;;;;;;;;;;5098112;28;20028;-69
2022/04/16 03:24:22;;;;;;;10.65;5.07;;;;;;;;;;5093704;28;20046;-72
2022/04/16 03:26:48;;;;;;;16.08;5.60;;;;;;;;;;5093095;28;20400;-68
2022/04/16 03:29:14;;;;;;;9.73;5.60;;;;;;;;;;5098803;28;20077;-65
2022/04/16 03:31:40;;;;;;;8.98;5.53;;;;;;;;;;5091902;28;20442;-68
2022/04/16 03:34:05;;;;;;;10.65;5.90;;;;;;;;;;5093362;28;20038;-69
2022/04/16 03:36:32;;;;;;;10.23;6.60;;;;;;;;;;5089376;28;20027;-67
2022/04/16 03:38:57;;;;;;;9.35;5.80;;;;;;;;;;5098145;28;20036;-66
2022/04/16 03:41:23;;;;;;;8.48;5.93;;;;;;;;;;5101689;28;20686;-66
2022/04/16 03:43:48;;;;;;;10.05;5.90;;;;;;;;;;5102251;28;20028;-70
2022/04/16 03:46:13;;;;;;;9.65;5.45;;;;;;;;;;5098284;28;20429;-68
2022/04/16 03:48:39;;;;;;;12.52;6.10;;;;;;;;;;5095962;28;20422;-67
2022/04/16 03:51:04;;;;;;;11.73;6.28;;;;;;;;;;5102420;28;20027;-70
2022/04/16 03:53:30;;;;;;;11.55;5.65;;;;;;;;;;5101159;28;20125;-68
2022/04/16 04:01:23;;;;;;;10.50;6.07;;;;;;;;;;5102012;28;20128;-67
2022/04/16 04:03:48;;;;;;;16.52;7.40;;;;;;;;;;5090555;28;20067;-67
2022/04/16 04:06:14;;;;;;;11.15;7.18;;;;;;;;;;5091376;28;20024;-67
2022/04/16 04:08:39;;;;;;;11.35;5.70;;;;;;;;;;5100723;28;20024;-67
2022/04/16 04:11:05;;;;;;;12.75;5.95;;;;;;;;;;5099744;28;20123;-67
2022/04/16 04:13:31;;;;;;;17.25;5.90;;;;;;;;;;5094044;28;20118;-67
2022/04/16 04:15:56;;;;;;;8.95;6.28;;;;;;;;;;5101248;28;20028;-71
2022/04/16 04:18:23;;;;;;;13.73;6.47;;;;;;;;;;5102171;28;20027;-68
2022/04/16 04:20:49;;;;;;;19.65;10.60;;;;;;;;;;5094978;28;20020;-66
2022/04/16 04:23:14;;;;;;;16.75;10.52;;;;;;;;;;5093356;28;20288;-67
2022/04/16 04:25:39;;;;;;;19.90;9.13;;;;;;;;;;5095993;28;20465;-66
2022/04/16 04:28:05;;;;;;;18.65;6.80;;;;;;;;;;5091036;28;20034;-66
2022/04/16 04:30:30;;;;;;;14.25;6.95;;;;;;;;;;5101760;28;20111;-71
2022/04/16 04:32:57;;;;;;;11.18;6.47;;;;;;;;;;5090924;28;20438;-67
2022/04/16 04:35:22;;;;;;;23.92;13.23;;;;;;;;;;5101327;28;20029;-71
2022/04/16 04:37:47;;;;;;;23.05;12.15;;;;;;;;;;5072228;28;20023;-67
2022/04/16 04:40:13;;;;;;;20.52;11.27;;;;;;;;;;5101371;28;20020;-68
2022/04/16 04:42:38;;;;;;;22.13;10.80;;;;;;;;;;5098697;28;20104;-68
2022/04/16 04:45:11;;;;;;;15.60;8.23;;;;;;;;;;5092958;28;20043;-66
2022/04/16 04:47:36;;;;;;;15.27;7.47;;;;;;;;;;5100799;28;20019;-68
2022/04/16 04:50:02;;;;;;;20.95;8.73;;;;;;;;;;5100694;28;20335;-68
2022/04/16 04:52:29;;;;;;;12.65;7.80;;;;;;;;;;5092791;28;20065;-69
2022/04/16 04:54:54;;;;;;;12.88;7.35;;;;;;;;;;5095259;28;20032;-67
2022/04/16 04:57:20;;;;;;;15.35;8.43;;;;;;;;;;5100886;28;20064;-68
2022/04/16 04:59:45;;;;;;;28.67;17.27;;;;;;;;;;5101586;28;20054;-71
2022/04/16 05:02:10;;;;;;;33.75;20.80;;;;;;;;;;5097267;28;20030;-69
2022/04/16 05:04:36;;;;;;;19.70;11.57;;;;;;;;;;5091950;28;20027;-72
2022/04/16 05:07:01;;;;;;;15.20;7.13;;;;;;;;;;5073366;28;20020;-67
2022/04/16 05:09:27;;;;;;;9.45;6.78;;;;;;;;;;5087174;28;20032;-66
2022/04/16 05:11:52;;;;;;;17.00;8.98;;;;;;;;;;5089644;28;20043;-69
2022/04/16 05:14:17;;;;;;;21.10;9.70;;;;;;;;;;5089014;28;20027;-68
2022/04/16 05:16:42;;;;;;;16.70;8.40;;;;;;;;;;5088651;28;20051;-67
2022/04/16 05:19:08;;;;;;;16.67;8.02;;;;;;;;;;5089450;28;20030;-67
2022/04/16 05:21:33;;;;;;;15.63;7.57;;;;;;;;;;5085872;28;20024;-69
2022/04/16 05:23:58;;;;;;;10.85;7.70;;;;;;;;;;5088132;28;20346;-68
2022/04/16 05:26:24;;;;;;;15.02;10.07;;;;;;;;;;5088830;28;20383;-70
2022/04/16 05:28:49;;;;;;;21.08;11.23;;;;;;;;;;5088418;28;20043;-71
2022/04/16 05:31:14;;;;;;;18.75;10.32;;;;;;;;;;5089848;28;20115;-68
2022/04/16 05:36:24;;;;;;;20.13;10.75;;;;;;;;;;5100155;28;21171;-67
2022/04/16 05:38:49;;;;;;;16.10;9.48;;;;;;;;;;5100056;28;20636;-66
2022/04/16 05:41:14;;;;;;;20.70;9.85;;;;;;;;;;5100425;28;20019;-67
2022/04/16 05:43:40;;;;;;;21.10;10.27;;;;;;;;;;5099575;28;20066;-65
2022/04/16 05:46:06;;;;;;;22.00;12.00;;;;;;;;;;5100180;28;20400;-66
2022/04/16 05:48:31;;;;;;;20.17;12.13;;;;;;;;;;5099802;28;20023;-65
2022/04/16 05:50:57;;;;;;;19.90;12.73;;;;;;;;;;5100559;28;20024;-68
2022/04/16 05:53:23;;;;;;;25.60;15.55;;;;;;;;;;5086324;28;20106;-72
2022/04/16 05:55:50;;;;;;;25.38;15.00;;;;;;;;;;5086027;28;20119;-74
2022/04/16 05:58:16;;;;;;;28.90;13.52;;;;;;;;;;5100439;28;20034;-69
2022/04/16 06:00:42;;;;;;;20.35;10.98;;;;;;;;;;5100978;28;20055;-70
2022/04/16 06:03:07;;;;;;;18.42;10.13;;;;;;;;;;5099451;28;21091;-71
2022/04/16 06:05:33;;;;;;;19.35;10.65;;;;;;;;;;5095652;28;20050;-68
2022/04/16 06:07:58;;;;;;;20.77;13.05;;;;;;;;;;5085890;28;20088;-69
2022/04/16 06:10:24;;;;;;;65.63;40.47;;;;;;;;;;5091434;28;20031;-68
2022/04/16 06:12:49;;;;;;;76.38;50.03;;;;;;;;;;5089440;28;20063;-70
2022/04/16 06:15:14;;;;;;;32.85;23.55;;;;;;;;;;5099344;28;20025;-66
2022/04/16 06:17:40;;;;;;;22.55;12.82;;;;;;;;;;5099309;28;20054;-69
2022/04/16 06:20:07;;;;;;;20.27;11.30;;;;;;;;;;5080438;28;20031;-66
2022/04/16 06:22:32;;;;;;;19.88;11.32;;;;;;;;;;5098990;28;20028;-69
2022/04/16 06:24:58;;;;;;;24.38;10.65;;;;;;;;;;5098262;28;20049;-68
2022/04/16 06:27:23;;;;;;;16.52;8.80;;;;;;;;;;5089160;28;20733;-71
2022/04/16 06:29:48;;;;;;;9.60;6.57;;;;;;;;;;5097907;28;20338;-69
2022/04/16 06:32:14;;;;;;;11.25;7.85;;;;;;;;;;5091882;28;20385;-66
2022/04/16 06:34:39;;;;;;;9.07;6.70;;;;;;;;;;5086289;28;20035;-66
2022/04/16 06:37:04;;;;;;;7.32;4.75;;;;;;;;;;5089026;28;20027;-68
2022/04/16 06:39:30;;;;;;;10.15;5.15;;;;;;;;;;5091622;28;20039;-67
2022/04/16 06:41:56;;;;;;;13.13;7.15;;;;;;;;;;5096402;28;20035;-68
2022/04/16 06:44:21;;;;;;;11.68;7.40;;;;;;;;;;5084407;28;21085;-72
2022/04/16 06:46:46;;;;;;;7.63;4.90;;;;;;;;;;5086055;28;20027;-70
2022/04/16 06:49:12;;;;;;;7.88;4.63;;;;;;;;;;5086194;28;20330;-68
2022/04/16 06:51:37;;;;;;;7.47;4.30;;;;;;;;;;5086261;28;20027;-71
2022/04/16 06:54:02;;;;;;;5.43;4.15;;;;;;;;;;5097763;28;20059;-67
2022/04/16 06:56:28;;;;;;;8.25;5.60;;;;;;;;;;5081010;28;20038;-68
2022/04/16 06:58:53;;;;;;;6.90;4.57;;;;;;;;;;5098995;28;20051;-68
2022/04/16 07:01:18;;;;;;;6.30;3.72;;;;;;;;;;5099089;28;20023;-70
2022/04/16 07:03:44;;;;;;;6.85;3.60;;;;;;;;;;5097216;28;20176;-68
2022/04/16 07:06:09;;;;;;;7.53;5.10;;;;;;;;;;5092255;28;20031;-72
2022/04/16 07:08:34;;;;;;;7.93;5.28;;;;;;;;;;5085980;28;20035;-69
2022/04/16 07:10:59;;;;;;;8.73;4.95;;;;;;;;;;5088935;28;20028;-72
2022/04/16 07:13:25;;;;;;;8.07;5.18;;;;;;;;;;5090176;28;20023;-73
2022/04/16 07:15:50;;;;;;;6.85;5.10;;;;;;;;;;5096713;28;20031;-70
2022/04/16 07:18:15;;;;;;;8.27;5.50;;;;;;;;;;5102567;28;20031;-73
2022/04/16 07:20:42;;;;;;;8.95;6.10;;;;;;;;;;5103894;28;20035;-69
2022/04/16 07:23:08;;;;;;;7.78;4.28;;;;;;;;;;5094790;28;20035;-69
2022/04/16 07:25:33;;;;;;;7.03;4.35;;;;;;;;;;5090754;28;20076;-68
2022/04/16 07:27:59;;;;;;;7.70;4.15;;;;;;;;;;5094291;28;20081;-74
2022/04/16 07:30:24;;;;;;;7.45;4.63;;;;;;;;;;5091249;28;21018;-75
2022/04/16 07:32:50;;;;;;;9.23;6.10;;;;;;;;;;5090800;28;20428;-70
2022/04/16 07:35:15;;;;;;;10.95;6.53;;;;;;;;;;5087427;28;20093;-73
2022/04/16 07:37:40;;;;;;;9.90;4.30;;;;;;;;;;5085791;28;20533;-68
2022/04/16 07:40:06;;;;;;;9.75;4.95;;;;;;;;;;5090649;28;20455;-70
2022/04/16 07:42:32;;;;;;;7.30;4.60;;;;;;;;;;5087120;28;20062;-68
2022/04/16 07:44:57;;;;;;;7.57;4.43;;;;;;;;;;5086571;28;20047;-74
2022/04/16 07:47:23;;;;;;;9.15;4.20;;;;;;;;;;5087786;28;20115;-69
2022/04/16 07:49:48;;;;;;;5.60;3.80;;;;;;;;;;5087645;28;20099;-72
2022/04/16 07:52:14;;;;;;;12.90;6.20;;;;;;;;;;5088298;28;20019;-70
2022/04/16 07:54:39;;;;;;;10.10;6.38;;;;;;;;;;5088767;28;20431;-73
2022/04/16 07:57:05;;;;;;;10.98;6.75;;;;;;;;;;5085796;28;20043;-69
2022/04/16 07:59:31;;;;;;;7.57;4.30;;;;;;;;;;5096364;28;20047;-70
2022/04/16 08:01:56;;;;;;;9.63;4.32;;;;;;;;;;5089631;28;20039;-67
2022/04/16 08:04:21;;;;;;;8.25;4.40;;;;;;;;;;5088623;28;20066;-68
2022/04/16 08:06:46;;;;;;;7.28;3.90;;;;;;;;;;5090493;28;20362;-68
2022/04/16 08:09:12;;;;;;;7.57;5.50;;;;;;;;;;5071050;28;20057;-69
2022/04/16 08:11:37;;;;;;;6.78;4.25;;;;;;;;;;5088979;28;20023;-69
2022/04/16 08:14:04;;;;;;;6.78;3.67;;;;;;;;;;5088844;28;20081;-70
2022/04/16 08:16:29;;;;;;;7.63;4.20;;;;;;;;;;5070435;28;20027;-71
2022/04/16 08:18:54;;;;;;;6.00;3.85;;;;;;;;;;5089808;28;20035;-69
2022/04/16 08:21:23;;;;;;;7.28;5.00;;;;;;;;;;5089219;28;20030;-71
2022/04/16 08:23:56;;;;;;;9.85;4.90;;;;;;;;;;5088643;28;20088;-72
2022/04/16 08:26:22;;;;;;;7.45;4.07;;;;;;;;;;5087400;28;20066;-68
2022/04/16 08:28:48;;;;;;;6.68;5.10;;;;;;;;;;5088859;28;20020;-69
2022/04/16 08:31:13;;;;;;;6.93;5.00;;;;;;;;;;5089608;28;20038;-67
2022/04/16 08:33:38;;;;;;;9.00;5.45;;;;;;;;;;5091710;28;20028;-70
2022/04/16 08:36:04;;;;;;;7.60;4.53;;;;;;;;;;5100132;28;20028;-67
2022/04/16 08:38:29;;;;;;;10.80;6.95;;;;;;;;;;5089904;28;20035;-71
2022/04/16 08:40:55;;;;;;;7.03;4.57;;;;;;;;;;5101421;28;20075;-70
2022/04/16 08:43:20;;;;;;;5.85;4.38;;;;;;;;;;5091221;28;20032;-75
2022/04/16 08:45:48;;;;;;;9.45;5.25;;;;;;;;;;5088323;28;20080;-68
2022/04/16 08:48:14;;;;;;;7.20;6.38;;;;;;;;;;5088667;28;20023;-70
2022/04/16 08:50:39;;;;;;;8.82;6.25;;;;;;;;;;5100647;28;20035;-72
2022/04/16 08:53:05;;;;;;;8.48;5.50;;;;;;;;;;5083354;28;20046;-69
2022/04/16 08:55:31;;;;;;;7.00;5.65;;;;;;;;;;5084951;28;20023;-68
2022/04/16 08:57:56;;;;;;;9.55;5.20;;;;;;;;;;5082371;28;20027;-68
2022/04/16 09:00:22;;;;;;;12.70;7.68;;;;;;;;;;5088394;28;20137;-68
2022/04/16 09:03:06;;;;;;;7.53;6.03;;;;;;;;;;5082812;28;20354;-68
2022/04/16 09:05:32;;;;;;;13.32;8.63;;;;;;;;;;5087728;28;20031;-71
2022/04/16 09:07:57;;;;;;;13.18;9.07;;;;;;;;;;5084201;28;20159;-71
2022/04/16 09:10:27;;;;;;;13.65;8.52;;;;;;;;;;5088069;28;20099;-71
2022/04/16 09:12:52;;;;;;;;;;;;;;;;;;5085002;28;20024;-71
2022/04/16 09:15:17;;;;;;;11.30;8.10;;;;;;;;;;5085832;28;20310;-73
2022/04/16 09:17:43;;;;;;;13.25;10.05;;;;;;;;;;5087327;28;20346;-70
2022/04/16 09:20:09;;;;;;;8.95;6.65;;;;;;;;;;5089504;28;20047;-74
2022/04/16 09:22:35;;;;;;;5.32;4.32;;;;;;;;;;5085352;28;20476;-77
2022/04/16 09:25:02;;;;;;;10.43;7.78;;;;;;;;;;5090177;28;20356;-71
2022/04/16 09:27:27;;;;;;;11.32;10.00;;;;;;;;;;5087479;28;20059;-76
2022/04/16 09:29:54;;;;;;;13.52;10.68;;;;;;;;;;5087324;28;20031;-75
2022/04/16 09:32:25;;;;;;;19.40;11.82;;;;;;;;;;5086671;28;20370;-71
2022/04/16 09:34:53;;;;;;;14.18;11.07;;;;;;;;;;5092997;28;20031;-72
2022/04/16 09:37:19;;;;;;;11.38;9.38;;;;;;;;;;5092730;28;20027;-75
2022/04/16 09:39:44;;;;;;;10.30;8.13;;;;;;;;;;5088694;28;20434;-76
2022/04/16 09:42:09;;;;;;;17.20;10.75;;;;;;;;;;5095230;28;20118;-73
2022/04/16 09:44:35;;;;;;;13.40;9.23;;;;;;;;;;5087036;28;20745;-73
2022/04/16 09:47:02;;;;;;;11.68;9.13;;;;;;;;;;5090239;28;20035;-71
2022/04/16 09:49:28;;;;;;;14.50;9.65;;;;;;;;;;5087463;28;20030;-75
2022/04/16 09:51:57;;;;;;;12.82;9.50;;;;;;;;;;5086456;28;20077;-72
2022/04/16 09:54:22;;;;;;;10.40;8.15;;;;;;;;;;5087091;28;20507;-71
2022/04/16 09:56:47;;;;;;;12.82;9.05;;;;;;;;;;5087323;28;20057;-72
2022/04/16 09:59:16;;;;;;;13.35;10.23;;;;;;;;;;5083949;28;20035;-72
2022/04/16 10:01:47;;;;;;;8.93;7.67;;;;;;;;;;5088824;28;20024;-71
2022/04/16 10:04:18;;;;;;;9.88;7.32;;;;;;;;;;5089132;28;20284;-73
2022/04/16 10:06:44;;;;;;;12.80;8.63;;;;;;;;;;5086082;28;20037;-72
2022/04/16 10:09:22;;;;;;;12.18;9.68;;;;;;;;;;5090957;28;20027;-72
2022/04/16 10:14:50;;;;;;;11.13;7.47;;;;;;;;;;5097889;28;20091;-71
2022/04/16 10:17:22;;;;;;;11.35;7.78;;;;;;;;;;5099077;28;20032;-74
2022/04/16 10:19:48;;;;;;;11.60;9.52;;;;;;;;;;5100367;28;20031;-72
2022/04/16 10:22:26;;;;;;;15.75;11.70;;;;;;;;;;5101180;28;20096;-71
2022/04/16 10:24:56;;;;;;;9.32;8.27;;;;;;;;;;5100905;28;20077;-73
2022/04/16 10:27:23;;;;;;;12.98;8.93;;;;;;;;;;5100916;28;20114;-73
2022/04/16 10:29:48;;;;;;;12.07;9.05;;;;;;;;;;5098437;28;20503;-76
2022/04/16 10:32:17;;;;;;;10.82;7.03;;;;;;;;;;5100033;28;20036;-73
2022/04/16 10:34:42;;;;;;;9.50;8.38;;;;;;;;;;5099765;28;20055;-74
2022/04/16 10:37:18;;;;;;;10.55;8.40;;;;;;;;;;5100871;28;20063;-73
2022/04/16 10:39:45;;;;;;;11.05;9.35;;;;;;;;;;5100321;28;20028;-71
2022/04/16 10:42:10;;;;;;;12.52;9.02;;;;;;;;;;5100889;28;20051;-72
2022/04/16 10:44:46;;;;;;;9.55;8.15;;;;;;;;;;5100690;28;20081;-73
2022/04/16 10:47:14;;;;;;;10.57;8.63;;;;;;;;;;5099327;28;20307;-73
2022/04/16 10:49:41;;;;;;;9.53;7.20;;;;;;;;;;5100870;28;20026;-72
2022/04/16 10:52:28;;;;;;;9.30;7.90;;;;;;;;;;5100728;28;20015;-74
2022/04/16 10:55:30;;;;;;;8.90;8.00;;;;;;;;;;5100232;28;20020;-76
2022/04/16 10:58:05;;;;;;;10.82;8.68;;;;;;;;;;5100722;28;20027;-72
2022/04/16 11:00:34;;;;;;;12.57;10.32;;;;;;;;;;5098568;28;20503;-72
2022/04/16 11:03:09;;;;;;;11.82;8.13;;;;;;;;;;5099356;28;20039;-72
2022/04/16 11:05:36;;;;;;;11.98;8.77;;;;;;;;;;5100416;28;20023;-71
2022/04/16 11:08:02;;;;;;;8.68;7.78;;;;;;;;;;5099979;28;20072;-72
2022/04/16 11:10:28;;;;;;;9.73;8.57;;;;;;;;;;5100457;28;20024;-73
2022/04/16 11:12:54;;;;;;;9.32;7.35;;;;;;;;;;5100832;28;20031;-72
2022/04/16 11:15:24;;;;;;;8.93;7.80;;;;;;;;;;5100057;28;20062;-72
2022/04/16 11:17:53;;;;;;;8.20;6.95;;;;;;;;;;5082137;28;20123;-73
2022/04/16 11:20:18;;;;;;;9.73;7.63;;;;;;;;;;5100322;28;20096;-73
2022/04/16 11:22:46;;;;;;;9.02;7.97;;;;;;;;;;5099963;28;20063;-73
2022/04/16 11:25:12;;;;;;;8.10;7.15;;;;;;;;;;5099656;28;20113;-73
2022/04/16 11:34:14;;;;;;;11.75;9.48;;;;;;;;;;5099288;28;20311;-71
2022/04/16 11:36:00;;;;;;;11.43;8.75;;;;;;;;;;5100662;28;20034;-71
2022/04/16 11:38:29;;;;;;;12.98;9.93;;;;;;;;;;5099490;28;20020;-72
2022/04/16 11:40:55;;;;;;;11.60;9.10;;;;;;;;;;5100039;28;20036;-75
2022/04/16 11:43:24;;;;;;;14.27;10.23;;;;;;;;;;5081101;28;20032;-72
2022/04/16 11:45:50;;;;;;;10.00;7.03;;;;;;;;;;5099834;28;20023;-76
2022/04/16 11:48:16;;;;;;;13.48;9.98;;;;;;;;;;5100621;28;20020;-73
2022/04/16 11:50:42;;;;;;;10.23;7.68;;;;;;;;;;5100481;28;20044;-73
2022/04/16 11:53:10;;;;;;;12.63;8.90;;;;;;;;;;5100012;28;20442;-72
2022/04/16 11:55:43;;;;;;;10.82;7.03;;;;;;;;;;5099715;28;20084;-75
2022/04/16 11:58:08;;;;;;;13.57;7.93;;;;;;;;;;5099218;28;20019;-72
2022/04/16 12:00:34;;;;;;;12.73;8.23;;;;;;;;;;5101778;28;20109;-74
2022/04/16 12:02:59;;;;;;;10.68;6.80;;;;;;;;;;5103488;28;20051;-74
2022/04/16 12:05:26;;;;;;;8.23;5.30;;;;;;;;;;5100777;28;20111;-75
2022/04/16 12:07:52;;;;;;;16.67;7.53;;;;;;;;;;5087667;28;20080;-74
2022/04/16 12:10:18;;;;;;;10.40;5.78;;;;;;;;;;5090422;28;20032;-71
2022/04/16 12:12:48;;;;;;;7.55;5.75;;;;;;;;;;5091011;28;20366;-74
2022/04/16 12:15:22;;;;;;;9.98;6.03;;;;;;;;;;5093151;28;20084;-69
2022/04/16 12:17:47;;;;;;;6.88;5.03;;;;;;;;;;5093221;28;20036;-78
2022/04/16 12:20:13;;;;;;;4.85;4.30;;;;;;;;;;5097720;28;20120;-68
2022/04/16 12:22:52;;;;;;;6.22;5.10;;;;;;;;;;5098502;28;20067;-70
2022/04/16 12:25:24;;;;;;;6.63;4.40;;;;;;;;;;5101351;28;20051;-71
2022/04/16 12:27:50;;;;;;;8.60;4.40;;;;;;;;;;5101650;28;20023;-70
2022/04/16 12:30:17;;;;;;;4.50;4.03;;;;;;;;;;5103063;28;20391;-71
2022/04/16 12:32:53;;;;;;;4.10;3.70;;;;;;;;;;5102288;28;20023;-72
2022/04/16 12:35:18;;;;;;;7.35;4.00;;;;;;;;;;5096879;28;20097;-71
2022/04/16 12:37:44;;;;;;;3.53;3.22;;;;;;;;;;5091082;28;20027;-77
2022/04/16 12:40:09;;;;;;;4.75;3.58;;;;;;;;;;5089234;28;20027;-72
2022/04/16 12:42:34;;;;;;;6.22;3.40;;;;;;;;;;5089756;28;20066;-72
2022/04/16 12:45:00;;;;;;;4.75;3.65;;;;;;;;;;5092943;28;20024;-73
2022/04/16 12:47:25;;;;;;;6.22;4.10;;;;;;;;;;5101763;28;20036;-69
2022/04/16 12:49:51;;;;;;;6.07;3.85;;;;;;;;;;5102312;28;20032;-71
2022/04/16 12:52:16;;;;;;;4.53;4.10;;;;;;;;;;5101869;28;20034;-70
2022/04/16 12:54:41;;;;;;;6.78;4.05;;;;;;;;;;5100430;28;20031;-71
2022/04/16 12:57:07;;;;;;;5.25;3.80;;;;;;;;;;5092945;28;20092;-72
2022/04/16 12:59:32;;;;;;;7.45;3.50;;;;;;;;;;5091703;28;21075;-70
2022/04/16 13:01:57;;;;;;;5.57;3.58;;;;;;;;;;5092666;28;20115;-68
2022/04/16 13:04:22;;;;;;;4.10;3.80;;;;;;;;;;5101309;28;20041;-70
2022/04/16 13:06:48;;;;;;;5.05;3.65;;;;;;;;;;5090698;28;20102;-69
2022/04/16 13:09:13;;;;;;;4.10;3.67;;;;;;;;;;5090192;28;20042;-71
2022/04/16 13:11:39;;;;;;;4.45;4.05;;;;;;;;;;5100118;28;20042;-69
2022/04/16 13:14:04;;;;;;;9.73;6.60;;;;;;;;;;5095347;28;20473;-72
2022/04/16 13:16:30;;;;;;;10.38;6.03;;;;;;;;;;5090217;28;20084;-69
2022/04/16 13:18:55;;;;;;;6.05;4.53;;;;;;;;;;5098457;28;20016;-69
2022/04/16 13:21:21;;;;;;;6.25;5.50;;;;;;;;;;5099975;28;20035;-69
2022/04/16 13:23:46;;;;;;;7.18;5.85;;;;;;;;;;5101070;28;20024;-71
2022/04/16 13:26:12;;;;;;;7.15;5.25;;;;;;;;;;5100891;28;20144;-71
2022/04/16 13:28:37;;;;;;;7.65;6.53;;;;;;;;;;5082411;28;20028;-72
2022/04/16 13:31:02;;;;;;;6.63;5.13;;;;;;;;;;5100853;28;20120;-70
2022/04/16 13:33:28;;;;;;;9.23;6.22;;;;;;;;;;5093442;28;20088;-71
2022/04/16 13:35:53;;;;;;;7.65;6.15;;;;;;;;;;5088298;28;21192;-73
2022/04/16 13:38:19;;;;;;;9.57;6.45;;;;;;;;;;5087929;28;20027;-71
2022/04/16 13:43:29;;;;;;;9.07;5.43;;;;;;;;;;5100106;28;20041;-71
2022/04/16 13:45:54;;;;;;;7.20;4.57;;;;;;;;;;5100080;28;20338;-73
2022/04/16 13:48:19;;;;;;;10.50;4.65;;;;;;;;;;5100273;28;20110;-70
2022/04/16 13:50:45;;;;;;;8.10;6.65;;;;;;;;;;5099321;28;20435;-72
2022/04/16 13:53:11;;;;;;;10.05;7.78;;;;;;;;;;5100418;28;20493;-73
2022/04/16 13:55:36;;;;;;;8.68;6.38;;;;;;;;;;5100743;28;20055;-69
2022/04/16 13:58:01;;;;;;;8.15;6.38;;;;;;;;;;5099680;28;20419;-71
2022/04/16 14:00:27;;;;;;;6.40;4.63;;;;;;;;;;5097073;28;20124;-69
2022/04/16 14:02:52;;;;;;;8.73;4.70;;;;;;;;;;5086828;28;20114;-72
2022/04/16 14:08:01;;;;;;;10.80;7.15;;;;;;;;;;5084526;28;20062;-70
2022/04/16 14:10:27;;;;;;;7.20;5.75;;;;;;;;;;5087966;28;20120;-70
2022/04/16 14:12:53;;;;;;;10.40;6.88;;;;;;;;;;5094581;28;20031;-70
2022/04/16 14:15:18;;;;;;;6.25;5.65;;;;;;;;;;5089960;28;20444;-72
2022/04/16 14:17:44;;;;;;;6.63;5.32;;;;;;;;;;5095523;28;20144;-72
2022/04/16 14:20:09;;;;;;;8.88;7.10;;;;;;;;;;5101070;28;20023;-71
2022/04/16 14:22:35;;;;;;;9.32;7.32;;;;;;;;;;5092354;28;20027;-69
2022/04/16 14:25:00;;;;;;;10.35;8.10;;;;;;;;;;5100154;28;20357;-72
2022/04/16 14:27:25;;;;;;;11.65;6.72;;;;;;;;;;5091620;28;20031;-69
2022/04/16 14:29:53;;;;;;;27.02;15.95;;;;;;;;;;5092730;28;20027;-69
2022/04/16 14:32:18;;;;;;;12.50;8.75;;;;;;;;;;5100263;28;20463;-69
2022/04/16 14:34:44;;;;;;;11.82;9.93;;;;;;;;;;5099553;28;20023;-69
2022/04/16 14:37:09;;;;;;;11.20;9.07;;;;;;;;;;5090038;28;20027;-72
2022/04/16 14:39:35;;;;;;;8.98;8.05;;;;;;;;;;5085099;28;20039;-67
2022/04/16 14:42:00;;;;;;;10.02;9.00;;;;;;;;;;5088513;28;20100;-70
2022/04/16 14:44:29;;;;;;;9.45;7.75;;;;;;;;;;5087607;28;20028;-71
2022/04/16 14:46:56;;;;;;;9.38;8.48;;;;;;;;;;5088332;28;20024;-68
2022/04/16 14:49:21;;;;;;;12.35;10.82;;;;;;;;;;5086754;28;20059;-71
2022/04/16 14:51:47;;;;;;;14.10;12.63;;;;;;;;;;5088027;28;20406;-71
2022/04/16 14:54:12;;;;;;;11.05;9.95;;;;;;;;;;5086937;28;20032;-71
2022/04/16 14:56:38;;;;;;;13.55;12.07;;;;;;;;;;5087491;28;20431;-71